createdAt,value
2018-10-03T00:08:26.003Z,3.25
2018-10-03T00:19:24.460Z,3.24
2018-10-03T00:30:27.130Z,3.24
2018-10-03T00:41:12.327Z,3.23
2018-10-03T00:52:13.657Z,3.23
2018-10-03T01:03:13.263Z,3.23
2018-10-03T01:14:15.296Z,3.23
2018-10-03T01:25:17.384Z,3.22
2018-10-03T01:36:19.716Z,3.23
2018-10-03T01:47:20.366Z,3.22
2018-10-03T01:58:20.815Z,3.22
2018-10-03T02:09:20.143Z,3.22
2018-10-03T02:20:21.295Z,3.22
2018-10-03T02:31:19.171Z,3.22
2018-10-03T02:42:20.471Z,3.22
2018-10-03T02:53:17.516Z,3.21
2018-10-03T03:04:19.647Z,3.21
2018-10-03T03:15:20.016Z,3.21
2018-10-03T03:26:18.990Z,3.21
2018-10-03T03:37:21.092Z,3.20
2018-10-03T03:48:20.339Z,3.20
2018-10-03T03:59:16.386Z,3.19
2018-10-03T04:10:18.731Z,3.19
2018-10-03T04:21:20.548Z,3.19
2018-10-03T04:32:23.005Z,3.19
2018-10-03T04:43:20.083Z,3.18
2018-10-03T04:54:20.112Z,3.18
2018-10-03T05:05:19.623Z,3.18
2018-10-03T05:16:18.093Z,3.18
2018-10-03T05:27:18.556Z,3.18
2018-10-03T05:38:21.043Z,3.18
2018-10-03T05:49:21.787Z,3.18
2018-10-03T06:00:22.126Z,3.18
2018-10-03T06:11:21.530Z,3.19
2018-10-03T06:22:17.108Z,3.20
2018-10-03T06:33:17.933Z,3.21
2018-10-03T06:44:19.900Z,3.22
2018-10-03T06:55:17.620Z,3.22
2018-10-03T07:06:16.662Z,3.25
2018-10-03T07:17:13.642Z,3.26
2018-10-03T07:28:10.228Z,3.28
2018-10-03T07:39:09.798Z,3.32
2018-10-03T07:50:07.268Z,3.33
2018-10-03T08:01:07.497Z,3.34
2018-10-03T08:12:07.437Z,3.34
2018-10-03T08:23:02.950Z,3.34
2018-10-03T08:33:50.136Z,3.36
2018-10-03T08:44:50.814Z,3.38
2018-10-03T08:55:48.968Z,3.36
2018-10-03T09:06:49.974Z,3.34
2018-10-03T09:17:48.752Z,3.37
2018-10-03T09:28:50.262Z,3.39
2018-10-03T09:39:49.307Z,3.42
2018-10-03T09:50:49.718Z,3.40
2018-10-03T10:01:50.184Z,3.39
2018-10-03T10:12:45.613Z,3.39
2018-10-03T10:23:43.950Z,3.39
2018-10-03T10:34:44.163Z,3.39
2018-10-03T10:45:45.172Z,3.40
2018-10-03T10:56:44.703Z,3.40
2018-10-03T11:07:45.572Z,3.39
2018-10-03T11:18:44.644Z,3.40
2018-10-03T11:29:39.083Z,3.40
2018-10-03T11:40:38.033Z,3.43
2018-10-03T11:51:35.343Z,3.40
2018-10-03T12:02:35.311Z,3.39
2018-10-03T12:13:34.173Z,3.40
2018-10-03T12:24:34.193Z,3.39
2018-10-03T12:35:30.498Z,3.39
2018-10-03T12:46:22.213Z,3.39
2018-10-03T12:57:11.093Z,3.39
2018-10-03T13:08:07.406Z,3.40
2018-10-03T13:18:57.248Z,3.40
2018-10-03T13:29:55.648Z,3.40
2018-10-03T13:40:55.022Z,3.40
2018-10-03T13:51:52.510Z,3.40
2018-10-03T14:02:46.436Z,3.40
2018-10-03T14:13:26.433Z,3.40
2018-10-03T14:24:19.117Z,3.40
2018-10-03T14:35:11.638Z,3.40
2018-10-03T14:46:02.054Z,3.41
2018-10-03T14:56:56.838Z,3.44
2018-10-03T15:07:52.616Z,3.44
2018-10-03T15:18:48.896Z,3.44
2018-10-03T15:29:38.173Z,3.44
2018-10-03T15:40:32.554Z,3.43
2018-10-03T15:51:27.738Z,3.43
2018-10-03T16:02:25.046Z,3.42
2018-10-03T16:13:21.107Z,3.41
2018-10-03T16:24:19.668Z,3.40
2018-10-03T16:35:19.399Z,3.39
2018-10-03T16:46:11.120Z,3.39
2018-10-03T16:57:04.583Z,3.38
2018-10-03T17:08:03.501Z,3.37
2018-10-03T17:19:02.154Z,3.37
2018-10-03T17:29:59.063Z,3.37
2018-10-03T17:40:59.143Z,3.36
2018-10-03T17:51:59.853Z,3.36
2018-10-03T18:02:58.890Z,3.36
2018-10-03T18:13:57.880Z,3.35
2018-10-03T18:24:55.145Z,3.34
2018-10-03T18:35:54.197Z,3.34
2018-10-03T18:46:55.396Z,3.34
2018-10-03T18:57:56.848Z,3.34
2018-10-03T19:08:55.291Z,3.34
2018-10-03T19:19:56.099Z,3.33
2018-10-03T19:30:54.920Z,3.33
2018-10-03T19:41:45.626Z,3.33
2018-10-03T19:52:45.985Z,3.32
2018-10-03T20:03:38.357Z,3.32
2018-10-03T20:14:34.118Z,3.32
2018-10-03T20:25:33.268Z,3.31
2018-10-03T20:36:32.329Z,3.31
2018-10-03T20:47:31.879Z,3.31
2018-10-03T20:58:27.876Z,3.30
2018-10-03T21:09:29.590Z,3.30
2018-10-03T21:20:28.671Z,3.30
2018-10-03T21:31:31.102Z,3.30
2018-10-03T21:42:33.253Z,3.29
2018-10-03T21:53:36.648Z,3.29
2018-10-03T22:04:47.027Z,3.26
2018-10-03T22:15:49.865Z,3.29
2018-10-03T22:26:48.945Z,3.28
2018-10-03T22:37:47.899Z,3.28
2018-10-03T22:48:48.591Z,3.28
2018-10-03T22:59:52.425Z,3.28
2018-10-03T23:10:52.403Z,3.28
2018-10-03T23:21:52.734Z,3.27
2018-10-03T23:32:52.390Z,3.27
2018-10-03T23:43:51.874Z,3.27
2018-10-03T23:54:53.111Z,3.26
